Impacts METAR Board
IDs:

KLEE - Leesburg Muni, FL, US

Updated at: 0100 UTC 12 May 2021
Potential Impact None Slight Moderate High
Time 11/13Z 11/14Z 11/15Z 11/16Z 11/17Z 11/18Z 11/19Z 11/20Z 11/21Z 11/22Z 11/23Z 12/00Z 12/01Z
Temp79 79 83 84 86 86 79 81 82 77 78 76 75
Dewpt73 72 72 72 71 69 70 68 68 68 69 70 68
Altim30.10 30.12 30.11 30.11 30.09 30.05 30.06 30.06 30.06 30.06 30.06 30.06 30.06
VIS10 10 10 10 10 10 10 10 10 10 10 10 10
CIG-- -- -- -- -- -- 70 49 -- 110 -- -- --
CoverFEWFEWCLRCLRCLRFEWBKNOVCSCTBKNSCTSCTCLR
FltCatVFRVFRVFRVFRVFRVFRVFRVFRVFRVFRVFRVFRVFR
WX------------VCTSVCTSVCTS--------
WDir017001601701401700200110100
WSpd0 5 4 6 6 5 14 0 12 0 3 5
WGst-- -- -- -- -- -- 22 -- -- -- -- -- --
Raw hourly METARs
KLEE 111253Z 00000KT 10SM FEW006 26/23 A3010 RMK AO2 SLP193 T02610228
KLEE 111353Z 17005KT 10SM FEW003 26/22 A3012 RMK AO2 SLP198 T02610222
KLEE 111453Z VRB04KT 10SM CLR 28/22 A3011 RMK AO2 SLP196 T02830222 50006
KLEE 111553Z 16006KT 10SM CLR 29/22 A3011 RMK AO2 SLP195 T02890222
KLEE 111653Z 17006KT 10SM CLR 30/22 A3009 RMK AO2 SLP187 T03000217
KLEE 111753Z 14005KT 10SM FEW100 30/21 A3005 RMK AO2 LTG DSNT SW SLP176 T03000206 10311 20244 58020
KLEE 111904Z 17014G22KT 10SM VCTS SCT055 BKN070 26/21 A3006 RMK AO2 LTG DSNT ALQDS T02610211
KLEE 111953Z 00000KT 10SM VCTS BKN049 OVC060 27/20 A3006 RMK AO2 LTG DSNT ALQDS TSB21E37 SLP176 T02720200
KLEE 112105Z 10SM VCTS SCT050 SCT085 28/20 A3006 RMK AO2 LTG DSNT N AND NE PRESRR T02780200
KLEE 112153Z 02012KT 10SM FEW002 SCT050 BKN110 25/20 A3006 RMK AO2 LTG DSNT NE SLP178 T02500200
KLEE 112253Z 00000KT 10SM FEW050 SCT100 26/21 A3006 RMK AO2 LTG DSNT S AND SW SLP179 T02560206
KLEE 112353Z AUTO 11003KT 10SM SCT110 24/21 A3006 RMK AO2 SLP178 60000 T02440211 10300 20244 50001
KLEE 120053Z AUTO 10005KT 10SM CLR 24/20 A3006 RMK AO2 SLP179 T02390200



Page loaded:  01:29 UTC  |   06:29 PM Pacific  |   07:29 PM Mountain  |   08:29 PM Central  |   09:29 PM Eastern

 

ADVISORIES

FORECASTS

FORECASTS

OBSERVATIONS

USER TOOLS

ABOUT US